Aidamar — ICSJ — position and weather

sailwx.info

Track history (hours):
 
Tides and Currents Weather Stations Pressure Air Temp Water Temp Dewpoint Dewpoint Depression Visibility Wind Speed Wind Dir Waves Ship Positions

Aidamar

Last reported at 2017-Apr-21 22:07 UTC. Time now 2017-Apr-23 11:52 UTC.
Position N 17°60' W 063°02'.

Length 253 m; draft 7.3 m.

Type: Passenger vessel. MMSI: 247312900.

Date/timePositionNaut miles runAvg speedWind from/ knotsBaromVisibWave heightAir tempDewpointWater temp
2017-Apr-21 22:07N 17°60' W 063°02'1 0.1
2017-Apr-21 10:20N 18°01' W 063°03'2 6.5
2017-Apr-21 09:59N 17°59' W 063°05'714.2
2017-Apr-21 09:30N 17°53' W 063°05'712.7
2017-Apr-21 09:00N 17°46' W 063°05'3 6.7
2017-Apr-21 08:30N 17°43' W 063°04'3 6.2
2017-Apr-21 08:00N 17°40' W 063°04'3 6.1
2017-Apr-21 07:30N 17°37' W 063°04'37 1.5
2017-Apr-20 07:31N 17°05' W 063°24'0 7.7
2017-Apr-20 07:30N 17°05' W 063°25'  
2017-Apr-17 00:58N 16°54' W 062°26'715.4
2017-Apr-17 00:30N 17°01' W 062°22'814.6
2017-Apr-16 23:58N 17°05' W 062°15'715.8
2017-Apr-16 23:30N 17°07' W 062°08'815.6
2017-Apr-16 23:01N 17°09' W 061°60'713.6
2017-Apr-16 22:30N 17°08' W 061°53'2 4.2
2017-Apr-16 22:00N 17°07' W 061°51'0 0.0
2017-Apr-16 21:28N 17°07' W 061°51'0 0.0
2017-Apr-16 20:58N 17°07' W 061°51'0 0.0
2017-Apr-16 20:28N 17°07' W 061°51'0 0.0
2017-Apr-16 19:58N 17°07' W 061°51'0 0.0
2017-Apr-16 19:28N 17°07' W 061°51'0 0.0
2017-Apr-16 18:58N 17°07' W 061°51'0 0.0
2017-Apr-16 18:28N 17°07' W 061°51'0 0.0
2017-Apr-16 17:58N 17°07' W 061°51'0 0.0
2017-Apr-16 17:28N 17°07' W 061°51'0 0.0
2017-Apr-16 16:58N 17°07' W 061°51'0 0.0
2017-Apr-16 16:28N 17°07' W 061°51'0 0.0
2017-Apr-16 15:58N 17°07' W 061°51'0 0.0
2017-Apr-16 15:28N 17°07' W 061°51'0 0.0
2017-Apr-16 14:58N 17°07' W 061°51'0 0.0
2017-Apr-16 13:58N 17°07' W 061°51'0 0.0
2017-Apr-16 13:28N 17°07' W 061°51'0 0.0
2017-Apr-16 12:58N 17°07' W 061°51'0 0.0
2017-Apr-16 12:28N 17°07' W 061°51'0 0.0
2017-Apr-16 11:58N 17°07' W 061°51'0 0.0
2017-Apr-16 11:29N 17°07' W 061°51'1 2.6
2017-Apr-16 11:00N 17°08' W 061°52'5 9.7
2017-Apr-16 10:30N 17°10' W 061°57'5 9.1
2017-Apr-16 10:00N 17°13' W 062°00'4 7.0
2017-Apr-16 09:30N 17°15' W 062°03'3 6.9
2017-Apr-16 09:00N 17°17' W 062°06'4 7.5
2017-Apr-16 08:30N 17°19' W 062°09'4 7.7
2017-Apr-16 08:00N 17°22' W 062°12'4 7.4
2017-Apr-16 07:30N 17°24' W 062°15'4 7.2
2017-Apr-16 07:00N 17°26' W 062°18'4 7.4
2017-Apr-16 06:30N 17°28' W 062°21'4 7.4
2017-Apr-16 06:00N 17°31' W 062°25'4 7.2
2017-Apr-16 05:28N 17°33' W 062°28'3 7.1
2017-Apr-16 05:00N 17°35' W 062°31'4 7.1
2017-Apr-16 04:30N 17°37' W 062°34'3 6.7
2017-Apr-16 04:00N 17°39' W 062°36'5 6.7
2017-Apr-16 03:15N 17°42' W 062°41'2 6.8
2017-Apr-16 02:59N 17°43' W 062°42'3 6.8
2017-Apr-16 02:30N 17°45' W 062°45'4 6.9
2017-Apr-16 01:57N 17°48' W 062°48'5 6.9
2017-Apr-16 01:14N 17°51' W 062°52'2 6.9
2017-Apr-16 01:00N 17°52' W 062°53'4 6.6
2017-Apr-16 00:25N 17°54' W 062°57'3 6.5
2017-Apr-15 23:54N 17°56' W 062°60'3 7.0
2017-Apr-15 23:29N 17°58' W 063°02'3 0.2
2017-Apr-15 12:00N 18°01' W 063°03'5 9.5
2017-Apr-15 11:29N 18°01' W 063°08'5 9.2
2017-Apr-15 11:00N 18°02' W 063°13'4 7.9
2017-Apr-15 10:30N 18°03' W 063°17'4 7.8
2017-Apr-15 10:00N 18°03' W 063°21'4 7.6
2017-Apr-15 09:30N 18°04' W 063°25'4 7.6
2017-Apr-15 08:55N 18°05' W 063°29'3 7.3
2017-Apr-15 08:27N 18°06' W 063°33'4 7.5
2017-Apr-15 07:59N 18°07' W 063°36'4 7.7
2017-Apr-15 07:30N 18°08' W 063°40'52 6.8
2017-Apr-14 23:50N 18°22' W 064°33'410.3
2017-Apr-14 23:26N 18°25' W 064°36'0 0.0
2017-Apr-14 12:44N 18°25' W 064°36'2 7.6
2017-Apr-14 12:29N 18°24' W 064°34'6 7.2
2017-Apr-14 11:36N 18°31' W 064°33'315.2
2017-Apr-14 11:24N 18°32' W 064°35'815.0
2017-Apr-14 10:53N 18°34' W 064°43'615.2
2017-Apr-14 10:30N 18°35' W 064°49'815.1
2017-Apr-14 09:58N 18°36' W 064°58'  
Track history (hours):
 
Tides and Currents Weather Stations Pressure Air Temp Water Temp Dewpoint Dewpoint Depression Visibility Wind Speed Wind Dir Waves Ship Positions

Aidamar

Last reported at 2017-Apr-21 22:07 UTC. Time now 2017-Apr-23 11:52 UTC.
Position N 17°60' W 063°02'.

Length 253 m; draft 7.3 m.

Type: Passenger vessel. MMSI: 247312900.

Date/timePositionNaut miles runAvg speedWind from/ knotsBaromVisibWave heightAir tempDewpointWater temp
2017-Apr-21 22:07N 17°60' W 063°02'1 0.1
2017-Apr-21 10:20N 18°01' W 063°03'2 6.5
2017-Apr-21 09:59N 17°59' W 063°05'714.2
2017-Apr-21 09:30N 17°53' W 063°05'712.7
2017-Apr-21 09:00N 17°46' W 063°05'3 6.7
2017-Apr-21 08:30N 17°43' W 063°04'3 6.2
2017-Apr-21 08:00N 17°40' W 063°04'3 6.1
2017-Apr-21 07:30N 17°37' W 063°04'37 1.5
2017-Apr-20 07:31N 17°05' W 063°24'0 7.7
2017-Apr-20 07:30N 17°05' W 063°25'  
2017-Apr-17 00:58N 16°54' W 062°26'715.4
2017-Apr-17 00:30N 17°01' W 062°22'814.6
2017-Apr-16 23:58N 17°05' W 062°15'715.8
2017-Apr-16 23:30N 17°07' W 062°08'815.6
2017-Apr-16 23:01N 17°09' W 061°60'713.6
2017-Apr-16 22:30N 17°08' W 061°53'2 4.2
2017-Apr-16 22:00N 17°07' W 061°51'0 0.0
2017-Apr-16 21:28N 17°07' W 061°51'0 0.0
2017-Apr-16 20:58N 17°07' W 061°51'0 0.0
2017-Apr-16 20:28N 17°07' W 061°51'0 0.0
2017-Apr-16 19:58N 17°07' W 061°51'0 0.0
2017-Apr-16 19:28N 17°07' W 061°51'0 0.0
2017-Apr-16 18:58N 17°07' W 061°51'0 0.0
2017-Apr-16 18:28N 17°07' W 061°51'0 0.0
2017-Apr-16 17:58N 17°07' W 061°51'0 0.0
2017-Apr-16 17:28N 17°07' W 061°51'0 0.0
2017-Apr-16 16:58N 17°07' W 061°51'0 0.0
2017-Apr-16 16:28N 17°07' W 061°51'0 0.0
2017-Apr-16 15:58N 17°07' W 061°51'0 0.0
2017-Apr-16 15:28N 17°07' W 061°51'0 0.0
2017-Apr-16 14:58N 17°07' W 061°51'0 0.0
2017-Apr-16 13:58N 17°07' W 061°51'0 0.0
2017-Apr-16 13:28N 17°07' W 061°51'0 0.0
2017-Apr-16 12:58N 17°07' W 061°51'0 0.0
2017-Apr-16 12:28N 17°07' W 061°51'0 0.0
2017-Apr-16 11:58N 17°07' W 061°51'0 0.0
2017-Apr-16 11:29N 17°07' W 061°51'1 2.6
2017-Apr-16 11:00N 17°08' W 061°52'5 9.7
2017-Apr-16 10:30N 17°10' W 061°57'5 9.1
2017-Apr-16 10:00N 17°13' W 062°00'4 7.0
2017-Apr-16 09:30N 17°15' W 062°03'3 6.9
2017-Apr-16 09:00N 17°17' W 062°06'4 7.5
2017-Apr-16 08:30N 17°19' W 062°09'4 7.7
2017-Apr-16 08:00N 17°22' W 062°12'4 7.4
2017-Apr-16 07:30N 17°24' W 062°15'4 7.2
2017-Apr-16 07:00N 17°26' W 062°18'4 7.4
2017-Apr-16 06:30N 17°28' W 062°21'4 7.4
2017-Apr-16 06:00N 17°31' W 062°25'4 7.2
2017-Apr-16 05:28N 17°33' W 062°28'3 7.1
2017-Apr-16 05:00N 17°35' W 062°31'4 7.1
2017-Apr-16 04:30N 17°37' W 062°34'3 6.7
2017-Apr-16 04:00N 17°39' W 062°36'5 6.7
2017-Apr-16 03:15N 17°42' W 062°41'2 6.8
2017-Apr-16 02:59N 17°43' W 062°42'3 6.8
2017-Apr-16 02:30N 17°45' W 062°45'4 6.9
2017-Apr-16 01:57N 17°48' W 062°48'5 6.9
2017-Apr-16 01:14N 17°51' W 062°52'2 6.9
2017-Apr-16 01:00N 17°52' W 062°53'4 6.6
2017-Apr-16 00:25N 17°54' W 062°57'3 6.5
2017-Apr-15 23:54N 17°56' W 062°60'3 7.0
2017-Apr-15 23:29N 17°58' W 063°02'3 0.2
2017-Apr-15 12:00N 18°01' W 063°03'5 9.5
2017-Apr-15 11:29N 18°01' W 063°08'5 9.2
2017-Apr-15 11:00N 18°02' W 063°13'4 7.9
2017-Apr-15 10:30N 18°03' W 063°17'4 7.8
2017-Apr-15 10:00N 18°03' W 063°21'4 7.6
2017-Apr-15 09:30N 18°04' W 063°25'4 7.6
2017-Apr-15 08:55N 18°05' W 063°29'3 7.3
2017-Apr-15 08:27N 18°06' W 063°33'4 7.5
2017-Apr-15 07:59N 18°07' W 063°36'4 7.7
2017-Apr-15 07:30N 18°08' W 063°40'52 6.8
2017-Apr-14 23:50N 18°22' W 064°33'410.3
2017-Apr-14 23:26N 18°25' W 064°36'0 0.0
2017-Apr-14 12:44N 18°25' W 064°36'2 7.6
2017-Apr-14 12:29N 18°24' W 064°34'6 7.2
2017-Apr-14 11:36N 18°31' W 064°33'315.2
2017-Apr-14 11:24N 18°32' W 064°35'815.0
2017-Apr-14 10:53N 18°34' W 064°43'615.2
2017-Apr-14 10:30N 18°35' W 064°49'815.1
2017-Apr-14 09:58N 18°36' W 064°58'  

Dump ship's entire track history